This is the latest recevied weather packets stored in our database for station/object KU9TRY. If no packets are shown the sender has not sent any weather packets the latest 10 day(s).
| Time | Temp. | Humidity | Pressure | Rain* | Wind** | Luminosity | Snow |
|---|---|---|---|---|---|---|---|
| 1777310370 | 26.67° C | 52% | 1016.1 hPa | 0 mm | - | 614 W/m² | - |
| 1777310067 | 26.11° C | 52% | 1016.2 hPa | 0 mm | - | 605 W/m² | - |
| 1777309160 | 26.11° C | 51% | 1016.6 hPa | 0 mm | - | 674 W/m² | - |
| 1777308858 | 26.11° C | 51% | 1016.6 hPa | 0 mm | - | 667 W/m² | - |
| 1777307036 | 25° C | 54% | 1016.9 hPa | 0 mm | - | 520 W/m² | - |
| 1777306734 | 24.44° C | 55% | 1016.8 hPa | 0 mm | - | 482 W/m² | - |
| 1777305523 | 25° C | 55% | 1016.8 hPa | 0 mm | - | 728 W/m² | - |
| 1777304307 | 24.44° C | 55% | 1017 hPa | 0 mm | - | 746 W/m² | - |
| 1777304005 | 24.44° C | 55% | 1017 hPa | 0 mm | - | 778 W/m² | - |
| 1777300675 | 22.78° C | 62% | 1017.8 hPa | 0 mm | - | 582 W/m² | - |
| 1777300372 | 22.78° C | 60% | 1017.7 hPa | 0 mm | - | 589 W/m² | - |
| 1777300069 | 22.78° C | 62% | 1017.9 hPa | 0 mm | - | 588 W/m² | - |
| 1777299766 | 22.78° C | 63% | 1017.9 hPa | 0 mm | - | 554 W/m² | - |
| 1777299463 | 22.78° C | 62% | 1017.8 hPa | 0 mm | - | 536 W/m² | - |
| 1777299161 | 22.22° C | 63% | 1017.6 hPa | 0 mm | - | 602 W/m² | - |
| 1777298858 | 21.67° C | 66% | 1017.8 hPa | 0 mm | - | 550 W/m² | - |
| 1777297947 | 21.11° C | 68% | 1017.4 hPa | 0 mm | - | 325 W/m² | - |
| 1777297644 | 21.11° C | 67% | 1017.5 hPa | 0 mm | - | 178 W/m² | - |
| 1777296734 | 20.56° C | 71% | 1017 hPa | 0 mm | - | 147 W/m² | - |
| 1777296430 | 20.56° C | 71% | 1017.5 hPa | 0 mm | - | 150 W/m² | - |
| 1777295823 | 20.56° C | 71% | 1017.4 hPa | 0 mm | - | 135 W/m² | - |
| 1777295520 | 20.56° C | 71% | 1017.2 hPa | 0 mm | - | 130 W/m² | - |
| 1777295218 | 20° C | 72% | 1017.4 hPa | 0 mm | - | 133 W/m² | - |
| 1777294916 | 20° C | 73% | 1017.4 hPa | 0 mm | - | 132 W/m² | - |
| 1777294616 | 19.44° C | 75% | 1017.2 hPa | 0 mm | - | 132 W/m² | - |
* Rain latest hour (hover to see other rain measurements)
** Current wind speed in m/s (hover to see current wind gust speed)